Time;durP1;ratioP1;P1;durP2;ratioP2;P2;SDS_P1;SDS_P2;PMS_P1;PMS_P2;Temp;Humidity;BMP_temperature;BMP_pressure;BME280_temperature;BME280_humidity;BME280_pressure;Samples;Min_cycle;Max_cycle;Signal;HPM_P1;HPM_P2
2023/04/23 00:00:11;;;;;;;26.08;17.63;;;;;;;8.26;100.00;100750.00;5008325;28;20051;-76
2023/04/23 00:02:43;;;;;;;31.42;19.75;;;;;;;8.24;100.00;100746.47;5031513;28;20054;-76
2023/04/23 00:05:11;;;;;;;24.38;19.17;;;;;;;8.20;100.00;100749.06;5022994;28;20041;-76
2023/04/23 00:07:40;;;;;;;27.35;19.42;;;;;;;8.20;100.00;100745.53;5018986;28;20041;-76
2023/04/23 00:10:08;;;;;;;26.73;19.25;;;;;;;8.18;100.00;100744.66;5028258;28;20483;-78
2023/04/23 00:12:36;;;;;;;29.13;19.27;;;;;;;8.17;100.00;100751.66;5034490;28;20057;-77
2023/04/23 00:15:05;;;;;;;28.63;19.02;;;;;;;8.16;100.00;100752.50;4998573;28;20502;-78
2023/04/23 00:17:32;;;;;;;26.17;17.90;;;;;;;8.15;100.00;100763.88;5035964;28;20049;-77
2023/04/23 00:20:00;;;;;;;28.00;17.92;;;;;;;8.14;100.00;100755.97;5043151;28;20061;-77
2023/04/23 00:22:27;;;;;;;28.85;19.73;;;;;;;8.12;100.00;100766.47;5013879;28;20041;-77
2023/04/23 00:24:55;;;;;;;24.65;17.83;;;;;;;8.10;100.00;100770.81;5038283;28;20048;-76
2023/04/23 00:27:22;;;;;;;25.45;18.63;;;;;;;8.06;100.00;100766.41;5032754;28;20064;-77
2023/04/23 00:29:50;;;;;;;25.05;17.45;;;;;;;8.03;100.00;100760.22;5043335;28;20045;-78
2023/04/23 00:32:17;;;;;;;28.00;18.92;;;;;;;8.00;100.00;100763.72;4973722;28;20045;-77
2023/04/23 00:34:47;;;;;;;25.02;17.77;;;;;;;7.99;100.00;100754.06;5027833;28;20395;-78
2023/04/23 00:37:15;;;;;;;26.80;19.25;;;;;;;7.96;100.00;100756.66;5009983;28;20057;-77
2023/04/23 00:39:43;;;;;;;25.88;17.90;;;;;;;7.95;100.00;100753.13;5031063;28;20053;-78
2023/04/23 00:42:11;;;;;;;27.58;19.63;;;;;;;7.94;100.00;100756.63;5036780;28;20045;-77
2023/04/23 00:44:40;;;;;;;30.40;19.95;;;;;;;7.94;100.00;100763.59;5000290;28;20384;-77
2023/04/23 00:47:09;;;;;;;28.85;19.00;;;;;;;7.92;100.00;100768.84;4985877;28;20049;-77
2023/04/23 00:49:38;;;;;;;28.50;20.05;;;;;;;7.92;100.00;100768.84;5036717;28;20053;-77
2023/04/23 00:52:05;;;;;;;29.88;19.50;;;;;;;7.93;100.00;100760.09;5011632;28;20060;-77
2023/04/23 00:54:33;;;;;;;30.35;21.30;;;;;;;7.92;100.00;100757.47;5015493;28;20552;-77
2023/04/23 00:57:01;;;;;;;26.70;19.40;;;;;;;7.92;100.00;100749.59;5025665;28;20049;-77
2023/04/23 00:59:30;;;;;;;27.42;20.17;;;;;;;7.93;100.00;100746.13;5021042;28;20061;-77
2023/04/23 01:01:58;;;;;;;29.58;20.83;;;;;;;7.93;100.00;100748.75;5039897;28;20060;-77
2023/04/23 01:04:28;;;;;;;25.98;19.67;;;;;;;7.92;100.00;100745.25;5006055;28;20068;-77
2023/04/23 01:06:57;;;;;;;26.23;16.55;;;;;;;7.93;100.00;100740.88;5030473;28;20411;-77
2023/04/23 01:09:26;;;;;;;28.77;20.65;;;;;;;7.92;100.00;100745.25;5033494;28;20053;-77
2023/04/23 01:11:56;;;;;;;31.73;22.35;;;;;;;7.92;100.00;100741.72;5026385;28;20457;-77
2023/04/23 01:14:25;;;;;;;37.03;24.63;;;;;;;7.91;100.00;100748.72;5021600;28;20052;-77
2023/04/23 01:16:52;;;;;;;31.70;22.88;;;;;;;7.92;100.00;100736.47;5026907;28;20060;-77
2023/04/23 01:19:20;;;;;;;34.17;23.00;;;;;;;7.93;100.00;100748.75;4969211;28;20045;-77
2023/04/23 01:21:50;;;;;;;35.70;24.33;;;;;;;7.92;100.00;100744.34;5026160;28;20033;-77
2023/04/23 01:24:17;;;;;;;40.47;26.58;;;;;;;7.93;100.00;100746.13;5016111;28;20890;-77
2023/04/23 01:26:45;;;;;;;53.90;30.92;;;;;;;7.94;100.00;100747.88;5038800;28;20068;-77
2023/04/23 01:29:13;;;;;;;54.40;32.50;;;;;;;7.96;100.00;100746.16;5028137;28;20499;-77
2023/04/23 01:31:41;;;;;;;97.55;36.28;;;;;;;7.97;100.00;100740.03;5026064;28;20053;-77
2023/04/23 01:34:09;;;;;;;71.55;33.88;;;;;;;7.99;100.00;100741.81;5015417;28;20057;-76
2023/04/23 01:36:37;;;;;;;76.05;35.20;;;;;;;8.00;100.00;100746.22;5008689;28;20064;-77
2023/04/23 01:39:04;;;;;;;131.88;39.20;;;;;;;8.03;100.00;100745.34;5029502;28;20048;-77
2023/04/23 01:41:33;;;;;;;124.82;40.00;;;;;;;8.06;100.00;100747.16;5040278;28;20048;-77
2023/04/23 01:44:01;;;;;;;72.70;35.00;;;;;;;8.06;100.00;100748.03;5025213;28;20047;-77
2023/04/23 01:46:29;;;;;;;90.07;38.65;;;;;;;8.10;100.00;100741.94;5024464;28;20068;-77
2023/04/23 01:48:56;;;;;;;106.18;37.78;;;;;;;8.10;100.00;100741.94;5023798;28;20050;-77
2023/04/23 01:51:25;;;;;;;91.10;38.20;;;;;;;8.12;100.00;100741.97;4970658;28;20050;-77
2023/04/23 01:53:53;;;;;;;75.47;37.95;;;;;;;8.12;100.00;100741.97;5025486;28;20426;-77
2023/04/23 01:56:25;;;;;;;77.78;37.00;;;;;;;8.13;100.00;100747.25;5043294;28;20037;-77
2023/04/23 01:58:53;;;;;;;73.40;36.05;;;;;;;8.13;100.00;100739.38;5046062;28;20074;-77
2023/04/23 02:01:21;;;;;;;83.72;38.33;;;;;;;8.16;100.00;100751.63;5035023;28;20048;-77
2023/04/23 02:03:49;;;;;;;86.00;36.72;;;;;;;8.15;100.00;100750.75;5025945;28;20049;-77
2023/04/23 02:06:17;;;;;;;116.57;41.58;;;;;;;8.15;100.00;100757.75;4997212;28;20048;-77
2023/04/23 02:08:44;;;;;;;59.92;33.13;;;;;;;8.14;100.00;100756.84;5033941;28;20048;-77
2023/04/23 02:11:11;;;;;;;82.60;35.63;;;;;;;8.10;100.00;100749.81;5020703;28;20077;-77
2023/04/23 02:13:40;;;;;;;59.97;32.72;;;;;;;8.08;100.00;100748.91;5037656;28;20045;-77
2023/04/23 02:16:07;;;;;;;111.38;38.92;;;;;;;8.05;100.00;100745.38;5043743;28;20407;-77
2023/04/23 02:18:34;;;;;;;86.72;36.65;;;;;;;8.01;100.00;100749.69;5043492;28;20068;-77
2023/04/23 02:21:03;;;;;;;85.00;36.88;;;;;;;8.00;100.00;100751.47;4985031;28;20045;-77
2023/04/23 02:23:30;;;;;;;109.00;36.70;;;;;;;7.99;100.00;100751.44;5030387;28;20041;-77
2023/04/23 02:25:58;;;;;;;107.65;38.03;;;;;;;7.99;100.00;100756.69;5010098;28;20505;-77
2023/04/23 02:28:25;;;;;;;74.15;33.90;;;;;;;7.98;100.00;100755.81;5013361;28;20056;-77
2023/04/23 02:30:52;;;;;;;62.42;33.85;;;;;;;7.99;100.00;100757.56;5029589;28;20053;-77
2023/04/23 02:33:20;;;;;;;79.32;37.00;;;;;;;8.00;100.00;100758.47;5034393;28;20052;-77
2023/04/23 02:35:47;;;;;;;90.05;39.70;;;;;;;8.01;100.00;100747.09;5037881;28;20052;-77
2023/04/23 02:38:15;;;;;;;65.85;36.83;;;;;;;8.02;100.00;100761.97;4987851;28;20410;-77
2023/04/23 02:40:42;;;;;;;57.67;33.70;;;;;;;8.03;100.00;100750.59;5010994;28;20502;-77
2023/04/23 02:43:09;;;;;;;72.63;37.47;;;;;;;8.05;100.00;100750.63;5008405;28;20392;-77
2023/04/23 02:45:37;;;;;;;71.00;36.67;;;;;;;8.05;100.00;100751.50;5016182;28;20417;-77
2023/04/23 02:48:04;;;;;;;69.00;36.75;;;;;;;8.05;100.00;100751.50;5044314;28;20041;-78
2023/04/23 02:50:31;;;;;;;83.07;37.47;;;;;;;8.04;100.00;100749.75;5030684;28;20045;-77
2023/04/23 02:52:59;;;;;;;64.72;34.42;;;;;;;8.03;100.00;100750.59;4987345;28;20461;-77
2023/04/23 02:55:28;;;;;;;85.53;37.92;;;;;;;8.02;100.00;100740.97;5004254;28;20064;-77
2023/04/23 02:57:57;;;;;;;71.50;36.45;;;;;;;7.99;100.00;100736.56;5029091;28;20517;-77
2023/04/23 03:00:28;;;;;;;83.10;38.30;;;;;;;7.97;100.00;100737.41;5025950;28;20045;-77
2023/04/23 03:02:55;;;;;;;63.67;34.00;;;;;;;7.95;100.00;100744.38;5028589;28;20045;-77
2023/04/23 03:05:23;;;;;;;60.47;33.75;;;;;;;7.92;100.00;100739.09;5006284;28;20041;-77
2023/04/23 03:07:50;;;;;;;54.90;32.83;;;;;;;7.89;100.00;100736.44;4990520;28;20037;-77
2023/04/23 03:10:18;;;;;;;60.28;33.70;;;;;;;7.86;100.00;100733.78;5019617;28;20049;-77
2023/04/23 03:12:45;;;;;;;56.08;33.88;;;;;;;7.83;100.00;100737.25;5041977;28;20052;-77
2023/04/23 03:15:14;;;;;;;53.03;32.53;;;;;;;7.79;100.00;100740.72;5041952;28;20052;-77
2023/04/23 03:17:42;;;;;;;58.35;32.95;;;;;;;7.76;100.00;100738.91;5028834;28;20320;-76
2023/04/23 03:20:10;;;;;;;58.83;32.85;;;;;;;7.73;100.00;100741.50;5042943;28;20044;-76
2023/04/23 03:22:38;;;;;;;63.70;34.10;;;;;;;7.70;100.00;100744.09;4983445;28;20060;-76
2023/04/23 03:25:07;;;;;;;67.53;35.38;;;;;;;7.68;100.00;100737.06;5020675;28;20060;-76
2023/04/23 03:27:34;;;;;;;71.43;36.38;;;;;;;7.64;100.00;100732.59;5021396;28;20053;-76
2023/04/23 03:30:07;;;;;;;55.80;34.10;;;;;;;7.60;100.00;100731.72;5023316;28;20056;-77
2023/04/23 03:32:35;;;;;;;68.47;35.88;;;;;;;7.58;100.00;100733.41;5008584;28;20049;-76
2023/04/23 03:35:03;;;;;;;63.40;38.45;;;;;;;7.55;100.00;100722.91;5036623;28;20060;-76
2023/04/23 03:37:30;;;;;;;68.32;35.55;;;;;;;7.53;100.00;100725.50;5022701;28;20048;-77
2023/04/23 03:39:58;;;;;;;56.85;33.83;;;;;;;7.50;100.00;100724.56;4964937;28;20064;-76
2023/04/23 03:42:26;;;;;;;65.00;34.58;;;;;;;7.46;100.00;100720.16;4995801;28;20061;-76
2023/04/23 03:44:53;;;;;;;53.28;32.25;;;;;;;7.41;100.00;100712.22;5019854;28;20049;-77
2023/04/23 03:47:21;;;;;;;52.08;33.60;;;;;;;7.37;100.00;100718.25;5021047;28;20060;-76
2023/04/23 03:49:48;;;;;;;54.17;32.80;;;;;;;7.34;100.00;100707.75;5044356;28;20059;-77
2023/04/23 03:52:15;;;;;;;57.70;32.65;;;;;;;7.32;100.00;100717.34;5013535;28;20041;-76
2023/04/23 03:54:43;;;;;;;72.45;34.50;;;;;;;7.29;100.00;100715.53;4972036;28;20052;-76
2023/04/23 03:57:16;;;;;;;55.20;32.13;;;;;;;7.28;100.00;100712.88;4999640;28;20057;-76
2023/04/23 04:00:11;;;;;;;68.32;34.70;;;;;;;7.23;100.00;100711.09;5029723;28;20410;-76
2023/04/23 04:02:41;;;;;;;67.70;36.38;;;;;;;7.20;100.00;100705.81;5015443;28;20049;-76
2023/04/23 04:05:09;;;;;;;51.90;32.40;;;;;;;7.17;100.00;100690.03;5019944;28;20520;-76
2023/04/23 04:07:38;;;;;;;52.40;30.95;;;;;;;7.15;100.00;100701.38;5021308;28;20049;-76
2023/04/23 04:10:06;;;;;;;60.00;34.95;;;;;;;7.13;100.00;100697.84;4986433;28;20056;-76
2023/04/23 04:12:34;;;;;;;70.22;36.80;;;;;;;7.11;100.00;100702.19;5000045;28;20049;-76
2023/04/23 04:15:02;;;;;;;69.47;36.60;;;;;;;7.10;100.00;100692.56;5040074;28;20056;-76
2023/04/23 04:17:30;;;;;;;75.65;38.30;;;;;;;7.08;100.00;100692.53;5039900;28;20056;-76
2023/04/23 04:19:57;;;;;;;63.30;37.05;;;;;;;7.07;100.00;100693.41;5040488;28;20066;-76
2023/04/23 04:22:24;;;;;;;75.18;38.38;;;;;;;7.06;100.00;100690.75;5014220;28;20053;-76
2023/04/23 04:24:52;;;;;;;76.15;43.15;;;;;;;7.06;100.00;100688.13;5001747;28;20053;-77
2023/04/23 04:27:19;;;;;;;73.40;40.13;;;;;;;7.07;100.00;100692.50;4965395;28;20060;-76
2023/04/23 04:29:47;;;;;;;66.65;37.55;;;;;;;7.07;100.00;100692.50;5041506;28;20064;-77
2023/04/23 04:32:15;;;;;;;68.03;38.85;;;;;;;7.06;100.00;100694.25;5035649;28;20056;-76
2023/04/23 04:34:42;;;;;;;67.18;36.97;;;;;;;7.07;100.00;100687.25;5041398;28;20056;-77
2023/04/23 04:37:10;;;;;;;69.97;38.45;;;;;;;7.08;100.00;100683.78;5022194;28;20065;-76
2023/04/23 04:39:37;;;;;;;71.90;38.95;;;;;;;7.11;100.00;100686.47;5004900;28;20053;-77
2023/04/23 04:42:06;;;;;;;67.03;38.05;;;;;;;7.15;100.00;100690.88;4971587;28;20045;-76
2023/04/23 04:44:36;;;;;;;94.80;43.78;;;;;;;7.20;100.00;100689.19;5029636;28;20049;-76
2023/04/23 04:47:07;;;;;;;75.43;40.20;;;;;;;7.25;100.00;100689.28;5034891;28;20053;-76
2023/04/23 04:49:34;;;;;;;87.68;42.58;;;;;;;7.28;100.00;100684.06;5003158;28;20388;-76
2023/04/23 04:52:02;;;;;;;82.50;46.20;;;;;;;7.29;100.00;100678.84;5031849;28;20059;-77
2023/04/23 04:54:29;;;;;;;78.25;40.65;;;;;;;7.33;100.00;100671.91;5025944;28;20596;-77
2023/04/23 04:56:56;;;;;;;70.63;40.00;;;;;;;7.37;100.00;100682.47;4980849;28;20082;-76
2023/04/23 04:59:23;;;;;;;67.30;37.75;;;;;;;7.42;100.00;100666.78;5017245;28;20049;-76
2023/04/23 05:01:51;;;;;;;75.78;40.55;;;;;;;7.47;100.00;100669.47;5023432;28;20056;-76
2023/04/23 05:04:18;;;;;;;80.93;41.75;;;;;;;7.53;100.00;100669.56;5022508;28;20045;-77
2023/04/23 05:06:45;;;;;;;79.53;41.13;;;;;;;7.59;100.00;100677.50;5039198;28;20047;-76
2023/04/23 05:09:13;;;;;;;87.10;45.88;;;;;;;7.65;100.00;100674.94;5015778;28;20046;-76
2023/04/23 05:11:43;;;;;;;81.85;44.13;;;;;;;7.73;100.00;100685.53;4998913;28;20437;-77
2023/04/23 05:14:11;;;;;;;85.13;46.03;;;;;;;7.78;100.00;100676.84;4971139;28;20053;-76
2023/04/23 05:16:38;;;;;;;84.63;45.92;;;;;;;7.83;100.00;100671.66;5006417;28;20073;-77
2023/04/23 05:19:07;;;;;;;92.90;47.88;;;;;;;7.88;100.00;100674.34;5035571;28;20053;-76
2023/04/23 05:21:37;;;;;;;103.45;49.42;;;;;;;7.92;100.00;100677.03;5035026;28;20864;-76
2023/04/23 05:24:04;;;;;;;88.25;46.17;;;;;;;7.97;100.00;100682.31;5027486;28;20045;-76
2023/04/23 05:26:32;;;;;;;88.40;47.38;;;;;;;8.01;100.00;100686.72;5035620;28;20064;-76
2023/04/23 05:28:59;;;;;;;111.35;51.03;;;;;;;8.05;100.00;100683.25;5001200;28;20041;-76
2023/04/23 05:31:26;;;;;;;98.88;47.90;;;;;;;8.12;100.00;100690.34;4987464;28;20053;-76
2023/04/23 05:33:55;;;;;;;97.38;49.65;;;;;;;8.19;100.00;100689.56;5022885;28;20048;-77
2023/04/23 05:36:22;;;;;;;93.38;47.42;;;;;;;8.24;100.00;100692.25;5021792;28;20056;-76
2023/04/23 05:38:50;;;;;;;94.53;47.78;;;;;;;8.24;100.00;100691.34;5042598;28;21614;-76
2023/04/23 05:41:17;;;;;;;89.32;46.13;;;;;;;8.23;100.00;100690.47;5023033;28;20040;-76
2023/04/23 05:43:44;;;;;;;98.30;49.00;;;;;;;8.23;100.00;100689.59;4991053;28;20048;-76
2023/04/23 05:46:11;;;;;;;81.28;44.53;;;;;;;8.23;100.00;100686.97;4999427;28;20502;-76
2023/04/23 05:48:39;;;;;;;84.35;45.00;;;;;;;8.26;100.00;100684.34;5022845;28;20050;-77
2023/04/23 05:51:06;;;;;;;93.82;47.30;;;;;;;8.28;100.00;100680.00;5042252;28;20041;-77
2023/04/23 05:53:34;;;;;;;103.10;49.97;;;;;;;8.31;100.00;100675.66;5041246;28;20064;-77
2023/04/23 05:56:01;;;;;;;107.55;51.15;;;;;;;8.35;100.00;100680.06;5026297;28;20045;-77
2023/04/23 05:58:28;;;;;;;92.13;47.35;;;;;;;8.39;100.00;100688.84;5017196;28;20049;-77
2023/04/23 06:00:56;;;;;;;102.53;53.50;;;;;;;8.42;100.00;100677.56;4998352;28;20068;-77
2023/04/23 06:03:23;;;;;;;107.32;54.03;;;;;;;8.46;100.00;100668.84;5027155;28;20037;-77
2023/04/23 06:05:51;;;;;;;107.93;52.95;;;;;;;8.50;100.00;100683.75;5046572;28;20049;-77
2023/04/23 06:08:19;;;;;;;113.85;57.50;;;;;;;8.51;100.00;100677.66;5041554;28;20052;-77
2023/04/23 06:10:46;;;;;;;106.57;55.70;;;;;;;8.50;100.00;100666.25;5016201;28;20053;-77
2023/04/23 06:13:14;;;;;;;112.13;57.05;;;;;;;8.50;100.00;100671.50;5018148;28;20388;-77
2023/04/23 06:15:41;;;;;;;101.28;52.85;;;;;;;8.50;100.00;100668.00;4963876;28;20060;-77
2023/04/23 06:18:09;;;;;;;103.50;54.72;;;;;;;8.53;100.00;100654.91;5026959;28;20048;-77
2023/04/23 06:20:36;;;;;;;105.97;54.60;;;;;;;8.57;100.00;100654.94;5027260;28;20597;-77
2023/04/23 06:23:05;;;;;;;116.55;56.22;;;;;;;8.61;100.00;100647.94;5034669;28;20502;-77
2023/04/23 06:25:32;;;;;;;114.97;56.90;;;;;;;8.61;100.00;100652.34;5028510;28;20053;-77
2023/04/23 06:27:59;;;;;;;108.00;56.17;;;;;;;8.63;100.00;100656.72;5035017;28;20068;-77
2023/04/23 06:30:38;;;;;;;104.10;55.58;;;;;;;8.69;100.00;100635.75;4982564;28;20087;-77
2023/04/23 06:33:08;;;;;;;104.75;54.25;;;;;;;8.74;100.00;100635.81;5003271;28;20041;-77
2023/04/23 06:35:35;;;;;;;106.53;56.50;;;;;;;8.81;100.00;100639.34;5040106;28;20044;-77
2023/04/23 06:38:02;;;;;;;95.30;52.30;;;;;;;8.87;100.00;100639.41;5019887;28;20048;-77
2023/04/23 06:40:29;;;;;;;95.90;52.90;;;;;;;8.90;100.00;100635.03;5024995;28;20060;-77
2023/04/23 06:42:57;;;;;;;93.93;52.10;;;;;;;8.95;100.00;100643.81;5025833;28;20507;-77
2023/04/23 06:45:40;;;;;;;99.63;53.53;;;;;;;9.06;100.00;100643.03;4989531;28;20438;-77
2023/04/23 06:48:07;;;;;;;100.35;53.65;;;;;;;9.16;100.00;100637.81;5016562;28;20052;-76
2023/04/23 06:50:34;;;;;;;95.78;53.28;;;;;;;9.26;100.00;100625.63;5019904;28;20053;-77
2023/04/23 06:53:02;;;;;;;89.97;50.25;;;;;;;9.32;100.00;100628.28;5026916;28;20045;-76
2023/04/23 06:55:29;;;;;;;93.50;53.45;;;;;;;9.40;100.00;100622.16;5016303;28;20518;-77
2023/04/23 06:57:56;;;;;;;84.93;50.33;;;;;;;9.50;100.00;100631.84;5041991;28;20056;-76
2023/04/23 07:00:24;;;;;;;95.72;53.80;;;;;;;9.62;100.00;100621.38;4997981;28;20045;-77
2023/04/23 07:02:51;;;;;;;88.32;53.20;;;;;;;9.74;100.00;100615.28;5037181;28;20053;-77
2023/04/23 07:05:19;;;;;;;89.15;49.85;;;;;;;9.91;100.00;100612.69;5005251;28;20087;-77
2023/04/23 07:07:46;;;;;;;82.75;48.08;;;;;;;10.04;100.00;100616.22;5014963;28;20615;-78
2023/04/23 07:10:14;;;;;;;80.03;50.22;;;;;;;10.23;100.00;100615.38;5040785;28;20048;-77
2023/04/23 07:12:44;;;;;;;77.10;47.90;;;;;;;10.43;100.00;100610.13;5028827;28;20409;-77
2023/04/23 07:15:11;;;;;;;74.68;46.65;;;;;;;10.66;100.00;100607.50;5041408;28;20056;-77
2023/04/23 07:17:38;;;;;;;72.70;46.95;;;;;;;10.88;100.00;100603.06;4980933;28;20060;-77
2023/04/23 07:20:07;;;;;;;67.20;44.65;;;;;;;11.08;100.00;100596.88;5008432;28;20136;-77
2023/04/23 07:22:34;;;;;;;67.63;42.95;;;;;;;11.29;100.00;100598.56;5027542;28;20045;-77
2023/04/23 07:25:03;;;;;;;59.53;42.80;;;;;;;11.47;100.00;100600.22;5025342;28;20418;-77
2023/04/23 07:27:31;;;;;;;60.42;40.90;;;;;;;11.62;100.00;100592.22;5030458;28;20056;-77
2023/04/23 07:29:58;;;;;;;59.08;41.78;;;;;;;11.75;100.00;100593.06;5023803;28;20056;-77
2023/04/23 07:32:26;;;;;;;61.30;41.97;;;;;;;11.87;100.00;100589.44;4978053;28;20049;-76
2023/04/23 07:34:55;;;;;;;64.40;42.83;;;;;;;11.99;100.00;100591.19;5014812;28;20049;-73
2023/04/23 07:37:22;;;;;;;53.90;37.88;;;;;;;12.11;100.00;100587.59;5023854;28;20438;-73
2023/04/23 07:39:49;;;;;;;53.55;38.40;;;;;;;12.19;100.00;100586.66;5021157;28;20088;-73
2023/04/23 07:42:17;;;;;;;54.63;37.63;;;;;;;12.26;100.00;100579.53;5016377;28;20239;-73
2023/04/23 07:44:44;;;;;;;58.88;39.08;;;;;;;12.36;100.00;100572.41;5018443;28;20072;-73
2023/04/23 07:47:11;;;;;;;48.28;35.47;;;;;;;12.37;100.00;100575.03;5024644;28;20533;-73
2023/04/23 07:49:39;;;;;;;51.17;36.17;;;;;;;12.33;100.00;100575.97;4971050;28;20049;-73
2023/04/23 07:52:07;;;;;;;56.15;38.67;;;;;;;12.40;100.00;100575.03;5014616;28;20045;-75
2023/04/23 07:54:34;;;;;;;50.72;35.63;;;;;;;12.48;100.00;100570.53;5029372;28;20045;-77
2023/04/23 07:57:02;;;;;;;49.28;36.30;;;;;;;12.55;100.00;100583.69;5024226;28;20046;-78
2023/04/23 07:59:29;;;;;;;51.30;36.45;;;;;;;12.62;100.00;100577.47;5009322;28;20066;-77
2023/04/23 08:01:56;;;;;;;48.00;34.47;;;;;;;12.62;100.00;100583.63;5023030;28;20037;-78
2023/04/23 08:04:24;;;;;;;47.22;34.85;;;;;;;12.62;100.00;100577.47;4988046;28;20056;-78
2023/04/23 08:06:52;;;;;;;43.97;32.08;;;;;;;12.64;100.00;100570.38;5018951;28;20048;-77
2023/04/23 08:09:19;;;;;;;45.63;33.80;;;;;;;12.72;100.00;100579.16;5013602;28;20056;-77
2023/04/23 08:11:47;;;;;;;45.28;32.13;;;;;;;12.81;100.00;100570.22;5026254;28;20045;-79
2023/04/23 08:14:14;;;;;;;49.72;34.20;;;;;;;12.78;100.00;100581.72;5013704;28;20060;-77
2023/04/23 08:16:42;;;;;;;45.38;33.72;;;;;;;12.82;100.00;100564.06;5026371;28;20483;-78
2023/04/23 08:19:10;;;;;;;42.13;31.73;;;;;;;12.81;100.00;100560.50;5024387;28;20409;-76
2023/04/23 08:21:38;;;;;;;45.63;33.63;;;;;;;12.82;100.00;100562.28;4983449;28;20048;-76
2023/04/23 08:24:06;;;;;;;46.85;32.63;;;;;;;12.79;100.00;100569.38;4982617;28;20041;-76
2023/04/23 08:26:35;;;;;;;42.22;30.65;;;;;;;12.68;100.00;100574.75;5012308;28;20053;-76
2023/04/23 08:29:04;;;;;;;46.33;32.58;;;;;;;12.73;100.00;100572.06;5022377;28;20041;-78
2023/04/23 08:31:31;;;;;;;46.80;32.83;;;;;;;12.85;100.00;100551.69;5011068;28;20037;-76
2023/04/23 08:33:59;;;;;;;42.85;31.35;;;;;;;12.96;100.00;100550.66;5039471;28;20056;-78
2023/04/23 08:36:26;;;;;;;40.53;31.00;;;;;;;13.04;100.00;100547.06;4962045;28;20041;-76
2023/04/23 08:38:53;;;;;;;40.63;29.73;;;;;;;13.12;100.00;100554.00;5016487;28;20344;-79
2023/04/23 08:41:23;;;;;;;39.15;30.63;;;;;;;13.23;100.00;100546.81;5028794;28;20046;-78
2023/04/23 08:44:13;;;;;;;41.72;31.17;;;;;;;13.36;100.00;100558.16;5015945;28;20053;-77
2023/04/23 08:46:42;;;;;;;39.53;30.30;;;;;;;13.38;100.00;100546.66;5011737;28;20834;-78
2023/04/23 08:49:17;;;;;;;38.10;30.17;;;;;;;13.53;100.00;100539.41;5031866;28;20407;-77
2023/04/23 08:51:47;;;;;;;37.22;29.50;;;;;;;13.76;100.00;100547.00;4989066;28;20042;-77
2023/04/23 08:54:26;;;;;;;41.20;29.90;;;;;;;13.93;100.00;100544.09;5010082;28;20510;-79
2023/04/23 08:56:57;;;;;;;34.90;26.73;;;;;;;13.99;100.00;100534.31;5030931;28;20804;-77
2023/04/23 08:59:30;;;;;;;36.30;27.75;;;;;;;14.00;100.00;100543.97;5015024;28;20509;-78
2023/04/23 09:02:00;;;;;;;34.38;26.10;;;;;;;13.99;100.00;100549.34;5012909;28;20065;-75
2023/04/23 09:04:27;;;;;;;33.92;25.88;;;;;;;14.09;100.00;100550.06;5008102;28;20045;-77
2023/04/23 09:06:55;;;;;;;34.88;25.67;;;;;;;14.18;100.00;100541.97;4976886;28;20423;-77
2023/04/23 09:09:23;;;;;;;34.22;25.58;;;;;;;14.28;100.00;100550.63;5025623;28;20052;-77
2023/04/23 09:11:50;;;;;;;31.77;25.30;;;;;;;14.41;100.00;100542.44;5023369;28;20478;-77
2023/04/23 09:14:24;;;;;;;31.35;23.35;;;;;;;14.56;100.00;100548.38;5036647;28;20458;-76
2023/04/23 09:16:52;;;;;;;31.05;24.58;;;;;;;14.59;100.00;100556.28;4995674;28;21030;-76
2023/04/23 09:19:20;;;;;;;28.55;22.77;;;;;;;14.60;100.00;100547.44;5041725;28;20053;-77
2023/04/23 09:21:47;;;;;;;30.23;22.08;;;;;;;14.63;100.00;100544.75;4985549;28;20518;-77
2023/04/23 09:24:16;;;;;;;29.35;22.85;;;;;;;14.61;100.00;100538.56;5027336;28;20044;-77
2023/04/23 09:26:45;;;;;;;29.58;22.55;;;;;;;14.55;100.00;100539.53;5022058;28;20052;-77
2023/04/23 09:29:17;;;;;;;26.48;21.02;;;;;;;14.68;100.00;100534.91;5032776;28;20458;-77
2023/04/23 09:31:46;;;;;;;30.42;21.70;;;;;;;14.85;100.00;100542.53;5013761;28;20364;-78
2023/04/23 09:34:18;;;;;;;27.33;20.58;;;;;;;15.03;100.00;100536.03;4998289;28;20502;-79
2023/04/23 09:36:51;;;;;;;21.52;18.08;;;;;;;15.07;100.00;100544.78;5037886;28;20409;-76
2023/04/23 09:39:22;;;;;;;29.50;21.23;;;;;;;15.15;100.00;100533.09;4963999;28;20053;-76
2023/04/23 09:41:53;;;;;;;29.02;20.02;;;;;;;15.25;100.00;100525.81;5015707;28;20052;-76
2023/04/23 09:44:21;;;;;;;22.65;18.27;;;;;;;15.40;100.00;100528.13;5013277;28;20068;-76
2023/04/23 09:46:49;;;;;;;23.42;15.55;;;;;;;15.47;100.00;100539.50;4999286;28;20045;-76
2023/04/23 09:49:17;;;;;;;21.27;16.45;;;;;;;15.55;100.00;100536.69;5013992;28;20488;-75
2023/04/23 09:51:46;;;;;;;20.77;14.13;;;;;;;15.66;100.00;100534.66;5016579;28;20049;-76
2023/04/23 09:54:21;;;;;;;20.57;13.87;;;;;;;15.71;100.00;100537.22;4977782;28;20049;-77
2023/04/23 09:56:55;;;;;;;19.33;15.68;;;;;;;15.71;100.00;100534.56;5021172;28;20073;-78
2023/04/23 09:59:25;;;;;;;18.08;13.40;;;;;;;15.69;100.00;100546.97;5042836;28;20049;-77
2023/04/23 10:02:13;;;;;;;19.90;14.40;;;;;;;15.64;100.00;100543.59;5006074;28;20084;-80
2023/04/23 10:04:40;;;;;;;18.80;14.35;;;;;;;15.58;100.00;100542.81;5016561;28;20549;-79
2023/04/23 10:07:12;;;;;;;17.33;12.82;;;;;;;15.51;100.00;100543.84;4982692;28;20045;-76
2023/04/23 10:09:42;;;;;;;18.73;11.50;;;;;;;15.49;100.00;100540.34;4971245;28;20041;-76
2023/04/23 10:12:10;;;;;;;12.98;9.98;;;;;;;15.54;100.00;100533.16;4989079;28;20049;-76
2023/04/23 10:14:58;;;;;;;13.73;10.00;;;;;;;15.64;100.00;100531.16;5028180;28;20055;-76
2023/04/23 10:17:26;;;;;;;14.23;9.68;;;;;;;15.79;100.00;100533.50;5025019;28;20045;-76
2023/04/23 10:19:54;;;;;;;15.20;9.77;;;;;;;15.95;100.00;100519.84;5015194;28;20046;-76
2023/04/23 10:22:22;;;;;;;15.27;10.85;;;;;;;16.10;100.00;100508.81;5025720;28;20042;-76
2023/04/23 10:24:54;;;;;;;14.30;10.48;;;;;;;16.20;100.00;100522.78;4961552;28;20057;-76
2023/04/23 10:27:28;;;;;;;15.07;8.70;;;;;;;16.29;100.00;100524.31;5026875;28;20045;-76
2023/04/23 10:30:16;;;;;;;11.95;8.27;;;;;;;16.48;100.00;100516.75;5010770;28;20061;-76
2023/04/23 10:32:44;;;;;;;12.32;8.38;;;;;;;16.61;100.00;100512.84;5016542;28;20065;-77
2023/04/23 10:35:11;;;;;;;9.82;6.75;;;;;;;16.73;100.00;100514.31;4998772;28;20414;-76
2023/04/23 10:37:40;;;;;;;11.80;7.10;;;;;;;16.74;100.00;100511.59;5024527;28;20067;-76
2023/04/23 10:40:11;;;;;;;13.40;8.60;;;;;;;16.73;100.00;100512.50;5003138;28;20045;-76
2023/04/23 10:42:39;;;;;;;9.40;8.00;;;;;;;16.64;100.00;100517.22;5013112;28;21083;-76
2023/04/23 10:45:15;;;;;;;8.80;7.30;;;;;;;16.70;100.00;100509.94;5002631;28;20052;-76
2023/04/23 10:47:45;;;;;;;9.85;6.68;;;;;;;16.81;100.00;100514.09;5042655;28;20517;-76
2023/04/23 10:50:26;;;;;;;10.45;7.43;;;;;;;16.85;100.00;100505.13;5009550;28;20065;-76
2023/04/23 10:52:56;;;;;;;10.45;7.45;;;;;;;16.91;100.00;100507.63;5027074;28;20045;-76
2023/04/23 10:55:27;;;;;;;11.98;6.95;;;;;;;17.04;100.00;100503.69;4983653;28;20056;-77
2023/04/23 10:57:57;;;;;;;11.63;7.50;;;;;;;17.17;100.00;100492.69;5045976;28;20048;-77
2023/04/23 11:00:49;;;;;;;13.75;7.60;;;;;;;17.31;100.00;100499.31;5024711;28;20071;-77
2023/04/23 11:03:41;;;;;;;10.95;6.88;;;;;;;17.44;100.00;100490.97;5015656;28;20053;-77
2023/04/23 11:06:38;;;;;;;11.57;7.63;;;;;;;17.52;100.00;100496.91;5021869;28;20045;-77
2023/04/23 11:09:29;;;;;;;10.70;7.05;;;;;;;17.62;100.00;100498.41;5024254;28;20041;-77
2023/04/23 11:11:58;;;;;;;11.75;6.22;;;;;;;17.65;100.00;100487.63;5032451;28;20049;-77
2023/04/23 11:14:40;;;;;;;10.82;6.47;;;;;;;17.56;100.00;100487.03;4994320;28;20686;-77